Time;durP1;ratioP1;P1;durP2;ratioP2;P2;SDS_P1;SDS_P2;PMS_P1;PMS_P2;Temp;Humidity;BMP_temperature;BMP_pressure;BME280_temperature;BME280_humidity;BME280_pressure;Samples;Min_cycle;Max_cycle;Signal;HPM_P1;HPM_P2
2022/06/30 00:02:18;;;;;;;29.75;27.27;;;19.10;84.70;;;;;;4954434;28;20401;-80
2022/06/30 00:04:44;;;;;;;28.98;26.35;;;19.00;84.60;;;;;;4907397;29;20039;-78
2022/06/30 00:07:09;;;;;;;29.10;26.38;;;19.00;84.60;;;;;;4938336;29;20050;-82
2022/06/30 00:09:35;;;;;;;27.00;24.67;;;19.00;84.60;;;;;;4954557;29;20130;-79
2022/06/30 00:12:01;;;;;;;27.73;25.15;;;19.00;84.70;;;;;;4940797;28;20395;-78
2022/06/30 00:14:27;;;;;;;29.95;27.33;;;18.90;84.70;;;;;;4925542;28;20046;-77
2022/06/30 00:16:53;;;;;;;27.00;24.48;;;18.90;84.60;;;;;;4941455;28;20101;-78
2022/06/30 00:19:19;;;;;;;28.55;25.88;;;18.90;84.70;;;;;;4957393;28;20062;-79
2022/06/30 00:21:45;;;;;;;27.65;25.27;;;18.90;84.50;;;;;;4957410;28;20125;-80
2022/06/30 00:24:10;;;;;;;27.17;24.85;;;18.80;84.60;;;;;;4941417;28;20065;-78
2022/06/30 00:26:36;;;;;;;28.60;25.63;;;18.80;84.80;;;;;;4957536;28;20518;-81
2022/06/30 00:29:02;;;;;;;27.48;25.15;;;18.70;84.90;;;;;;4957393;28;20406;-79
2022/06/30 00:31:27;;;;;;;27.30;25.05;;;18.70;84.90;;;;;;4941206;28;20041;-80
2022/06/30 00:33:53;;;;;;;24.90;22.50;;;18.70;84.80;;;;;;4941320;28;20044;-80
2022/06/30 00:36:19;;;;;;;23.40;21.40;;;18.70;84.90;;;;;;4957484;28;20117;-80
2022/06/30 00:38:44;;;;;;;22.85;20.95;;;18.70;84.70;;;;;;4941613;28;20035;-80
2022/06/30 00:41:10;;;;;;;21.15;19.15;;;18.60;84.60;;;;;;4925463;28;20042;-78
2022/06/30 00:43:46;;;;;;;19.98;18.27;;;18.60;84.60;;;;;;4957029;28;20066;-77
2022/06/30 00:46:12;;;;;;;20.23;18.33;;;18.70;84.50;;;;;;4956959;28;20047;-79
2022/06/30 00:48:38;;;;;;;18.10;16.52;;;18.60;84.30;;;;;;4925841;28;20045;-78
2022/06/30 00:51:05;;;;;;;18.23;16.52;;;18.60;84.20;;;;;;4957308;28;20058;-78
2022/06/30 00:53:35;;;;;;;17.70;15.90;;;18.60;84.10;;;;;;4941074;28;20483;-79
2022/06/30 00:56:06;;;;;;;16.48;14.95;;;18.60;84.00;;;;;;4957350;28;20038;-82
2022/06/30 00:58:38;;;;;;;16.63;15.02;;;18.60;83.90;;;;;;4956890;28;20049;-78
2022/06/30 01:01:06;;;;;;;15.55;14.15;;;18.50;83.70;;;;;;4956939;28;20058;-79
2022/06/30 01:03:33;;;;;;;16.02;14.48;;;18.50;83.60;;;;;;4940979;28;20050;-82
2022/06/30 01:06:01;;;;;;;15.43;13.93;;;18.50;83.50;;;;;;4956469;28;20054;-78
2022/06/30 01:08:30;;;;;;;13.05;11.95;;;18.50;83.30;;;;;;4941851;28;20039;-80
2022/06/30 01:13:42;;;;;;;14.65;13.25;;;18.50;83.20;;;;;;4960164;28;20407;-82
2022/06/30 01:16:08;;;;;;;10.68;9.77;;;18.50;83.10;;;;;;4960219;28;20051;-77
2022/06/30 01:18:34;;;;;;;12.77;11.30;;;18.50;83.00;;;;;;4976592;28;20495;-79
2022/06/30 01:21:00;;;;;;;13.32;12.02;;;18.50;82.80;;;;;;4944313;28;20047;-81
2022/06/30 01:23:26;;;;;;;12.35;11.15;;;18.50;82.60;;;;;;4960068;28;20081;-78
2022/06/30 01:25:52;;;;;;;12.15;11.05;;;18.50;82.50;;;;;;4960033;28;20074;-78
2022/06/30 01:28:19;;;;;;;13.80;12.40;;;18.50;82.30;;;;;;4928717;28;20594;-81
2022/06/30 01:30:44;;;;;;;13.02;11.73;;;18.50;82.20;;;;;;4960062;28;20122;-79
2022/06/30 01:33:10;;;;;;;12.23;11.10;;;18.40;82.20;;;;;;4912753;28;20130;-80
2022/06/30 01:35:36;;;;;;;13.65;11.85;;;18.50;82.10;;;;;;4960179;28;20070;-78
2022/06/30 01:38:02;;;;;;;12.18;10.98;;;18.50;82.00;;;;;;4960032;28;20046;-82
2022/06/30 01:40:33;;;;;;;11.30;10.20;;;18.50;82.00;;;;;;4960232;28;20085;-77
2022/06/30 01:43:00;;;;;;;11.93;10.77;;;18.50;81.80;;;;;;4959839;28;20050;-79
2022/06/30 01:45:26;;;;;;;11.63;10.48;;;18.50;81.80;;;;;;4959841;28;20113;-76
2022/06/30 01:47:52;;;;;;;10.38;9.05;;;18.50;81.60;;;;;;4975810;28;20074;-78
2022/06/30 01:50:20;;;;;;;11.27;10.27;;;18.50;81.50;;;;;;4959662;28;20049;-79
2022/06/30 01:52:46;;;;;;;9.85;9.00;;;18.50;81.20;;;;;;4959375;28;20042;-79
2022/06/30 01:55:12;;;;;;;10.98;9.45;;;18.50;81.10;;;;;;4927970;28;20085;-80
2022/06/30 01:57:38;;;;;;;10.82;9.20;;;18.60;81.00;;;;;;4959568;28;20047;-78
2022/06/30 02:00:07;;;;;;;8.65;7.85;;;18.60;80.80;;;;;;4975509;28;20129;-79
2022/06/30 02:02:33;;;;;;;8.80;7.90;;;18.60;80.70;;;;;;4958981;28;20070;-80
2022/06/30 02:04:59;;;;;;;9.93;9.02;;;18.60;80.50;;;;;;4943394;28;20088;-80
2022/06/30 02:07:25;;;;;;;9.68;8.43;;;18.60;80.50;;;;;;4959316;28;20093;-79
2022/06/30 02:09:51;;;;;;;8.60;7.80;;;18.60;80.50;;;;;;4975470;28;20042;-78
2022/06/30 02:15:07;;;;;;;8.50;7.63;;;18.70;80.00;;;;;;4959507;28;20474;-79
2022/06/30 02:17:32;;;;;;;7.40;6.65;;;18.60;79.90;;;;;;4975360;28;20050;-78
2022/06/30 02:19:59;;;;;;;8.18;7.30;;;18.60;79.90;;;;;;4958064;28;20482;-79
2022/06/30 02:22:25;;;;;;;7.45;6.75;;;18.70;79.80;;;;;;4976184;28;20394;-77
2022/06/30 02:24:50;;;;;;;7.82;7.07;;;18.60;79.80;;;;;;4927225;28;20045;-82
2022/06/30 02:27:16;;;;;;;10.13;7.72;;;18.60;79.60;;;;;;4943214;28;20100;-81
2022/06/30 02:29:42;;;;;;;8.38;7.55;;;18.60;79.40;;;;;;4927265;28;20089;-79
2022/06/30 02:32:08;;;;;;;7.97;7.13;;;18.60;79.50;;;;;;4958737;28;20050;-81
2022/06/30 02:34:34;;;;;;;7.40;6.78;;;18.50;79.40;;;;;;4958697;28;20599;-77
2022/06/30 02:36:59;;;;;;;7.53;6.82;;;18.60;79.30;;;;;;4975043;28;20042;-82
2022/06/30 02:39:25;;;;;;;7.68;6.97;;;18.60;79.20;;;;;;4942957;28;20046;-79
2022/06/30 02:41:51;;;;;;;7.45;5.82;;;18.60;78.90;;;;;;4974994;28;20046;-77
2022/06/30 02:44:17;;;;;;;7.60;6.82;;;18.60;78.80;;;;;;4974672;28;20047;-81
2022/06/30 02:46:43;;;;;;;7.47;6.85;;;18.50;78.60;;;;;;4975222;28;20038;-81
2022/06/30 02:49:08;;;;;;;8.43;7.05;;;18.50;78.50;;;;;;4958676;28;20043;-80
2022/06/30 02:51:34;;;;;;;6.55;5.95;;;18.50;78.30;;;;;;4974666;28;20045;-76
2022/06/30 02:54:00;;;;;;;8.20;6.50;;;18.50;78.50;;;;;;4974816;28;20031;-79
2022/06/30 02:56:26;;;;;;;7.38;6.72;;;18.50;78.30;;;;;;4958562;28;20534;-80
2022/06/30 02:58:52;;;;;;;6.78;6.18;;;18.50;78.30;;;;;;4974614;28;20114;-80
2022/06/30 03:01:17;;;;;;;5.85;5.35;;;18.50;78.30;;;;;;4974439;28;20039;-78
2022/06/30 03:03:43;;;;;;;7.80;6.15;;;18.40;78.30;;;;;;4942498;28;20037;-80
2022/06/30 03:06:09;;;;;;;13.02;6.72;;;18.40;78.50;;;;;;4958195;28;20077;-81
2022/06/30 03:08:35;;;;;;;7.18;6.22;;;18.40;78.60;;;;;;4974144;28;20118;-79
2022/06/30 03:11:00;;;;;;;7.40;6.68;;;18.30;78.70;;;;;;4941714;28;20039;-79
2022/06/30 03:13:26;;;;;;;6.88;6.13;;;18.30;78.80;;;;;;4973814;28;20058;-81
2022/06/30 03:15:52;;;;;;;7.85;6.53;;;18.20;79.10;;;;;;4974386;28;20046;-80
2022/06/30 03:18:17;;;;;;;7.63;6.75;;;18.20;79.40;;;;;;4958011;28;20188;-78
2022/06/30 03:20:43;;;;;;;6.70;5.97;;;18.20;79.40;;;;;;4926308;28;20487;-79
2022/06/30 03:23:09;;;;;;;7.80;6.70;;;18.20;79.50;;;;;;4942023;28;20038;-77
2022/06/30 03:25:35;;;;;;;7.93;7.13;;;18.20;79.60;;;;;;4942012;28;20035;-80
2022/06/30 03:28:02;;;;;;;8.55;6.97;;;18.20;79.90;;;;;;4959097;28;20045;-77
2022/06/30 03:30:28;;;;;;;7.60;6.90;;;18.20;79.90;;;;;;4979853;28;20047;-80
2022/06/30 03:32:53;;;;;;;7.97;7.18;;;18.20;80.00;;;;;;4942183;28;20070;-79
2022/06/30 03:35:19;;;;;;;8.18;7.47;;;18.10;80.20;;;;;;4941857;28;20065;-79
2022/06/30 03:37:46;;;;;;;7.90;7.15;;;18.10;80.30;;;;;;4941800;28;20042;-78
2022/06/30 03:40:12;;;;;;;8.48;7.32;;;18.10;80.50;;;;;;4957499;28;20046;-80
2022/06/30 03:42:38;;;;;;;8.23;7.32;;;18.00;80.60;;;;;;4973775;28;20494;-80
2022/06/30 03:45:04;;;;;;;5.95;5.45;;;18.00;80.70;;;;;;4941566;28;20078;-80
2022/06/30 03:47:30;;;;;;;7.90;7.10;;;18.00;80.90;;;;;;4973663;28;20041;-78
2022/06/30 03:49:55;;;;;;;7.38;6.65;;;18.00;80.80;;;;;;4941873;28;20399;-80
2022/06/30 03:52:21;;;;;;;7.95;6.50;;;18.00;80.90;;;;;;4941873;28;20533;-79
2022/06/30 03:54:47;;;;;;;7.90;7.15;;;18.00;81.00;;;;;;4957480;28;20050;-76
2022/06/30 03:57:13;;;;;;;7.32;6.70;;;18.00;81.10;;;;;;4973967;28;20403;-76
2022/06/30 03:59:39;;;;;;;7.65;6.43;;;18.00;81.20;;;;;;4973435;28;20055;-81
2022/06/30 04:02:05;;;;;;;6.07;5.45;;;18.10;81.20;;;;;;4973392;28;20042;-80
2022/06/30 04:04:31;;;;;;;9.68;5.43;;;18.10;81.20;;;;;;4973646;28;20058;-83
2022/06/30 04:06:56;;;;;;;8.52;6.38;;;18.10;80.90;;;;;;4941590;28;20407;-81
2022/06/30 04:09:22;;;;;;;7.03;6.43;;;18.20;80.90;;;;;;4957455;28;20130;-79
2022/06/30 04:11:47;;;;;;;7.18;6.47;;;18.20;81.00;;;;;;4940926;28;20042;-81
2022/06/30 04:14:13;;;;;;;7.25;6.55;;;18.30;80.80;;;;;;4957364;28;20047;-82
2022/06/30 04:16:39;;;;;;;7.22;5.85;;;18.30;81.10;;;;;;4957134;28;20162;-77
2022/06/30 04:19:04;;;;;;;5.88;5.35;;;18.30;80.90;;;;;;4941359;28;20042;-79
2022/06/30 04:21:30;;;;;;;7.03;6.32;;;18.30;81.40;;;;;;4925390;28;20606;-81
2022/06/30 04:23:56;;;;;;;7.72;6.28;;;18.40;81.30;;;;;;4925482;28;20046;-78
2022/06/30 04:26:21;;;;;;;7.30;6.15;;;18.40;81.20;;;;;;4957206;28;20435;-77
2022/06/30 04:28:47;;;;;;;5.78;5.25;;;18.40;80.90;;;;;;4957221;28;20039;-79
2022/06/30 04:33:57;;;;;;;6.85;6.25;;;18.40;80.90;;;;;;4957110;28;20054;-82
2022/06/30 04:36:22;;;;;;;6.13;5.53;;;18.50;80.80;;;;;;4957163;28;20039;-79
2022/06/30 04:38:48;;;;;;;6.40;5.72;;;18.50;80.70;;;;;;4925712;28;20150;-81
2022/06/30 04:41:26;;;;;;;7.68;6.85;;;18.50;80.60;;;;;;4940941;28;20475;-81
2022/06/30 04:43:56;;;;;;;7.30;6.60;;;18.50;80.80;;;;;;4975071;28;20042;-75
2022/06/30 04:46:23;;;;;;;7.00;6.28;;;18.50;80.80;;;;;;4977063;28;20042;-80
2022/06/30 04:48:49;;;;;;;6.68;5.97;;;18.50;80.80;;;;;;4976909;28;20045;-82
2022/06/30 04:51:15;;;;;;;6.38;5.78;;;18.60;80.80;;;;;;4976928;28;20134;-78
2022/06/30 04:53:42;;;;;;;7.88;6.53;;;18.60;80.80;;;;;;4960786;28;20046;-79
2022/06/30 04:56:08;;;;;;;7.53;6.18;;;18.60;80.80;;;;;;4960614;28;20043;-79
2022/06/30 04:58:35;;;;;;;6.30;5.75;;;18.70;80.80;;;;;;4944571;28;20049;-78
2022/06/30 05:01:01;;;;;;;7.10;6.40;;;18.60;80.90;;;;;;4976589;28;20050;-79
2022/06/30 05:03:27;;;;;;;7.18;6.43;;;18.70;80.90;;;;;;4944604;28;20049;-82
2022/06/30 05:05:53;;;;;;;6.80;6.13;;;18.70;80.90;;;;;;4960548;28;20047;-79
2022/06/30 05:08:20;;;;;;;8.23;6.60;;;18.70;80.90;;;;;;4976677;28;20066;-79
2022/06/30 05:10:45;;;;;;;9.68;6.55;;;18.80;81.10;;;;;;4976419;28;20046;-77
2022/06/30 05:13:11;;;;;;;7.60;6.78;;;18.80;81.10;;;;;;4944210;28;20043;-80
2022/06/30 05:15:37;;;;;;;8.90;6.28;;;18.80;81.10;;;;;;4944396;28;20060;-79
2022/06/30 05:18:03;;;;;;;7.60;6.75;;;18.90;81.10;;;;;;4960436;28;20049;-78
2022/06/30 05:20:29;;;;;;;7.97;7.18;;;18.90;81.00;;;;;;4976312;28;20487;-77
2022/06/30 05:22:55;;;;;;;8.73;6.90;;;19.00;80.90;;;;;;4976105;28;20514;-79
2022/06/30 05:28:06;;;;;;;7.88;6.88;;;19.10;81.30;;;;;;4960105;28;20047;-79
2022/06/30 05:30:33;;;;;;;8.48;7.20;;;19.20;81.00;;;;;;4960254;28;20105;-77
2022/06/30 05:32:58;;;;;;;6.97;6.07;;;19.30;80.50;;;;;;4976058;28;20043;-79
2022/06/30 05:35:24;;;;;;;7.78;6.97;;;19.30;80.60;;;;;;4943866;28;20043;-82
2022/06/30 05:37:50;;;;;;;6.43;5.82;;;19.40;80.30;;;;;;4959889;28;20101;-77
2022/06/30 05:40:15;;;;;;;7.50;6.72;;;19.50;80.20;;;;;;4959633;28;20043;-78
2022/06/30 05:42:41;;;;;;;7.53;6.82;;;19.50;80.00;;;;;;4976139;28;20050;-78
2022/06/30 05:45:07;;;;;;;7.05;6.45;;;19.60;79.90;;;;;;4959592;28;20484;-80
2022/06/30 05:47:33;;;;;;;7.35;6.57;;;19.70;79.80;;;;;;4959819;28;20039;-78
2022/06/30 05:49:59;;;;;;;7.70;6.50;;;19.80;79.80;;;;;;4959593;28;20097;-79
2022/06/30 05:52:25;;;;;;;7.47;6.63;;;19.80;79.60;;;;;;4959530;28;20039;-77
2022/06/30 05:54:51;;;;;;;7.28;6.47;;;19.90;79.70;;;;;;4943611;28;20046;-77
2022/06/30 05:57:16;;;;;;;8.15;7.15;;;20.00;79.60;;;;;;4959312;28;20074;-80
2022/06/30 05:59:42;;;;;;;8.65;6.82;;;20.00;79.40;;;;;;4943792;28;20043;-78
2022/06/30 06:02:08;;;;;;;8.60;7.57;;;20.00;79.40;;;;;;4959422;28;20094;-77
2022/06/30 06:04:34;;;;;;;8.90;7.40;;;20.10;79.30;;;;;;4975670;28;20074;-79
2022/06/30 06:07:02;;;;;;;9.70;7.43;;;20.20;79.30;;;;;;4975381;28;20045;-78
2022/06/30 06:09:28;;;;;;;9.30;7.82;;;20.30;79.20;;;;;;4943430;28;20042;-76
2022/06/30 06:11:55;;;;;;;8.70;7.90;;;20.40;78.90;;;;;;4975527;28;20442;-79
2022/06/30 06:14:21;;;;;;;8.40;7.60;;;20.40;78.60;;;;;;4943424;28;20055;-81
2022/06/30 06:16:47;;;;;;;11.77;8.25;;;20.40;78.40;;;;;;4959242;28;20109;-77
2022/06/30 06:19:12;;;;;;;8.55;7.68;;;20.40;78.40;;;;;;4959354;28;20406;-78
2022/06/30 06:21:40;;;;;;;11.05;7.45;;;20.40;78.20;;;;;;4975318;28;20051;-81
2022/06/30 06:24:06;;;;;;;8.35;7.53;;;20.50;78.30;;;;;;4958979;28;20133;-78
2022/06/30 06:26:31;;;;;;;9.75;7.35;;;20.60;78.60;;;;;;4975088;28;20043;-78
2022/06/30 06:29:06;;;;;;;8.73;7.45;;;20.70;78.30;;;;;;4959021;28;20054;-83
2022/06/30 06:31:37;;;;;;;8.93;8.00;;;20.70;78.30;;;;;;4974949;28;20472;-77
2022/06/30 06:34:04;;;;;;;8.98;8.18;;;20.80;78.10;;;;;;4974963;28;20042;-79
2022/06/30 06:36:30;;;;;;;13.27;8.70;;;20.90;78.20;;;;;;4942831;28;20043;-78
2022/06/30 06:38:57;;;;;;;8.80;7.80;;;20.90;78.10;;;;;;4944757;28;20117;-80
2022/06/30 06:41:24;;;;;;;11.52;8.73;;;21.00;78.20;;;;;;4978160;28;20426;-78
2022/06/30 06:43:51;;;;;;;9.40;8.35;;;21.00;78.00;;;;;;4960388;28;20050;-80
2022/06/30 06:46:18;;;;;;;9.93;8.73;;;21.10;77.80;;;;;;4956049;28;20051;-79
2022/06/30 06:48:44;;;;;;;9.90;8.93;;;21.10;77.70;;;;;;4955707;28;20038;-80
2022/06/30 06:51:09;;;;;;;10.15;9.25;;;21.20;77.90;;;;;;4957483;28;20079;-81
2022/06/30 06:53:38;;;;;;;12.13;9.57;;;21.20;77.70;;;;;;4956607;28;20070;-80
2022/06/30 06:56:04;;;;;;;11.68;8.60;;;21.30;77.60;;;;;;4998066;28;20049;-79
2022/06/30 06:58:30;;;;;;;11.52;9.70;;;21.40;77.70;;;;;;4942247;28;20058;-81
2022/06/30 07:00:56;;;;;;;10.90;9.75;;;21.40;77.60;;;;;;4957189;28;20046;-82
2022/06/30 07:03:22;;;;;;;11.23;9.85;;;21.50;77.40;;;;;;4940604;28;20045;-81
2022/06/30 07:05:48;;;;;;;10.70;9.70;;;21.70;77.30;;;;;;4940773;28;20054;-82
2022/06/30 07:08:14;;;;;;;11.10;10.02;;;21.80;77.30;;;;;;4956932;28;20046;-79
2022/06/30 07:10:40;;;;;;;12.55;10.50;;;21.90;77.00;;;;;;4957175;28;20135;-80
2022/06/30 07:13:06;;;;;;;11.52;9.70;;;22.00;76.60;;;;;;4954221;28;20058;-82
2022/06/30 07:15:32;;;;;;;10.00;9.00;;;22.00;76.90;;;;;;4960956;28;20054;-82
2022/06/30 07:17:58;;;;;;;10.43;9.48;;;22.10;76.70;;;;;;4956754;28;20049;-82
2022/06/30 07:20:25;;;;;;;10.43;9.43;;;22.20;76.60;;;;;;4972390;28;20050;-81
2022/06/30 07:22:50;;;;;;;9.20;8.27;;;22.40;76.30;;;;;;4956499;28;20042;-80
2022/06/30 07:25:16;;;;;;;11.68;10.40;;;22.40;76.20;;;;;;4976790;28;20415;-80
2022/06/30 07:27:42;;;;;;;9.90;9.00;;;22.50;75.90;;;;;;4940750;28;20049;-81
2022/06/30 07:30:08;;;;;;;10.07;9.07;;;22.60;76.00;;;;;;4973262;28;20045;-80
2022/06/30 07:32:35;;;;;;;10.52;9.43;;;22.70;75.70;;;;;;4973006;28;20042;-81
2022/06/30 07:35:01;;;;;;;32.58;9.50;;;22.80;75.30;;;;;;4964401;28;20132;-79
2022/06/30 07:37:26;;;;;;;9.30;8.45;;;22.90;75.10;;;;;;4957125;28;20062;-82
2022/06/30 07:39:52;;;;;;;11.80;9.95;;;22.90;74.90;;;;;;4972873;28;20052;-81
2022/06/30 07:42:18;;;;;;;11.40;10.20;;;23.00;74.70;;;;;;4971832;28;20562;-80
2022/06/30 07:44:44;;;;;;;10.30;9.30;;;23.10;74.50;;;;;;4954683;28;20482;-81
2022/06/30 07:47:10;;;;;;;11.07;9.65;;;23.20;74.20;;;;;;4969622;28;20127;-80
2022/06/30 07:49:36;;;;;;;11.07;9.55;;;23.30;73.90;;;;;;4971325;28;20061;-81
2022/06/30 07:52:02;;;;;;;10.95;9.93;;;23.50;74.10;;;;;;4949142;28;20046;-81
2022/06/30 07:54:27;;;;;;;11.40;10.27;;;23.60;73.70;;;;;;4972075;28;20561;-79
2022/06/30 07:56:53;;;;;;;12.40;11.20;;;23.60;72.70;;;;;;4977565;28;20042;-80
2022/06/30 07:59:19;;;;;;;14.07;10.95;;;23.70;73.40;;;;;;4940729;28;20132;-81
2022/06/30 08:01:44;;;;;;;11.75;10.50;;;23.80;73.20;;;;;;4956447;28;20125;-78
2022/06/30 08:04:11;;;;;;;11.88;10.65;;;23.80;72.50;;;;;;4940532;28;20042;-82
2022/06/30 08:06:37;;;;;;;12.07;10.85;;;23.90;72.70;;;;;;4973684;28;20443;-83
2022/06/30 08:09:03;;;;;;;12.75;11.45;;;24.10;72.80;;;;;;4998426;28;20034;-80
2022/06/30 08:11:29;;;;;;;13.35;12.10;;;24.20;72.50;;;;;;4955968;28;20703;-79
2022/06/30 08:13:55;;;;;;;12.40;11.27;;;24.30;72.30;;;;;;4971257;28;20081;-83
2022/06/30 08:16:21;;;;;;;15.80;14.20;;;24.40;72.10;;;;;;4956686;28;20553;-83
2022/06/30 08:18:47;;;;;;;15.10;13.57;;;24.40;69.30;;;;;;4955991;28;20125;-82
2022/06/30 08:21:13;;;;;;;14.45;13.07;;;24.30;70.10;;;;;;4929529;28;20047;-82
2022/06/30 08:23:40;;;;;;;14.45;13.10;;;24.40;70.00;;;;;;4985039;28;20042;-80
2022/06/30 08:26:06;;;;;;;14.38;12.88;;;24.40;70.30;;;;;;4945501;28;20044;-81
2022/06/30 08:28:33;;;;;;;15.25;13.85;;;24.50;70.00;;;;;;4977350;28;20645;-81
2022/06/30 08:31:00;;;;;;;15.30;13.57;;;24.50;69.00;;;;;;4943298;28;20434;-82
2022/06/30 08:33:26;;;;;;;18.67;15.38;;;24.60;69.50;;;;;;4958626;28;20053;-81
2022/06/30 08:35:51;;;;;;;15.35;13.73;;;24.70;69.20;;;;;;4944469;28;20047;-82
2022/06/30 08:38:20;;;;;;;15.55;14.00;;;24.80;69.20;;;;;;4944728;28;20441;-81
2022/06/30 08:43:33;;;;;;;16.00;14.35;;;24.80;67.30;;;;;;4996281;28;20488;-81
2022/06/30 08:46:00;;;;;;;15.45;14.05;;;24.90;68.00;;;;;;4974739;28;20082;-83
2022/06/30 08:48:27;;;;;;;15.90;14.30;;;24.90;67.80;;;;;;4960737;28;20069;-80
2022/06/30 08:51:07;;;;;;;17.33;14.35;;;24.90;68.40;;;;;;4956949;28;20031;-79
2022/06/30 08:53:40;;;;;;;16.17;13.77;;;25.00;67.20;;;;;;4993489;28;20042;-80
2022/06/30 08:56:06;;;;;;;18.17;16.30;;;25.10;67.50;;;;;;4971708;28;20073;-77
2022/06/30 08:58:33;;;;;;;18.20;16.50;;;25.10;66.20;;;;;;4972297;28;20053;-84
2022/06/30 09:00:58;;;;;;;18.08;16.38;;;25.10;66.60;;;;;;4959302;28;20034;-80
2022/06/30 09:03:24;;;;;;;15.80;13.82;;;25.20;66.90;;;;;;4973205;28;20608;-78
2022/06/30 09:05:50;;;;;;;13.80;12.02;;;25.30;65.70;;;;;;4973799;28;20058;-80
2022/06/30 09:08:18;;;;;;;17.83;13.95;;;25.30;63.50;;;;;;4942863;28;20050;-75
2022/06/30 09:10:48;;;;;;;15.27;13.60;;;25.40;64.00;;;;;;4958502;28;20045;-79
2022/06/30 09:13:14;;;;;;;17.00;13.88;;;25.30;64.40;;;;;;4973009;28;20399;-77
2022/06/30 09:15:40;;;;;;;16.00;14.50;;;25.30;63.10;;;;;;4973884;28;20050;-78
2022/06/30 09:18:06;;;;;;;20.80;18.73;;;25.40;64.50;;;;;;4980689;28;20053;-79
2022/06/30 09:20:34;;;;;;;19.48;17.52;;;25.40;64.50;;;;;;4976081;28;20046;-78
2022/06/30 09:23:17;;;;;;;19.15;17.08;;;25.40;65.10;;;;;;4995965;28;20434;-77
2022/06/30 09:25:47;;;;;;;20.90;18.80;;;25.60;65.30;;;;;;4979479;28;20454;-77
2022/06/30 09:28:14;;;;;;;21.83;19.52;;;25.60;66.20;;;;;;4995965;28;20060;-79
2022/06/30 09:30:40;;;;;;;21.33;19.23;;;25.70;65.20;;;;;;4962785;28;20402;-77
2022/06/30 09:33:07;;;;;;;20.83;18.65;;;25.50;65.00;;;;;;4978773;28;20450;-79
2022/06/30 09:35:33;;;;;;;25.75;17.77;;;25.50;65.60;;;;;;4962755;28;20045;-78
2022/06/30 09:38:09;;;;;;;20.88;18.70;;;25.60;65.50;;;;;;4978664;28;20050;-78
2022/06/30 09:43:31;;;;;;;22.20;19.98;;;25.70;64.70;;;;;;4964958;28;20057;-77
2022/06/30 09:45:57;;;;;;;20.93;18.80;;;25.70;64.60;;;;;;4994804;28;20042;-77
2022/06/30 09:48:27;;;;;;;20.17;17.25;;;25.90;64.60;;;;;;4962476;28;20133;-77
2022/06/30 09:51:00;;;;;;;21.77;19.55;;;26.00;63.40;;;;;;4962481;28;20043;-79
2022/06/30 09:53:27;;;;;;;19.60;17.40;;;25.90;63.20;;;;;;4994768;28;20051;-77
2022/06/30 09:55:52;;;;;;;18.85;16.92;;;25.90;63.40;;;;;;4962324;28;20125;-78
2022/06/30 09:58:30;;;;;;;21.77;19.63;;;26.00;62.50;;;;;;4994974;28;20133;-79
2022/06/30 10:00:58;;;;;;;25.08;22.67;;;26.20;63.70;;;;;;4978235;28;20538;-81
2022/06/30 10:03:23;;;;;;;26.90;24.30;;;26.10;63.50;;;;;;4978428;28;20042;-80
2022/06/30 10:06:06;;;;;;;26.20;23.50;;;26.20;64.00;;;;;;4962104;28;20414;-79
2022/06/30 10:08:33;;;;;;;32.65;22.40;;;26.30;64.60;;;;;;4978139;28;20046;-80
2022/06/30 10:11:00;;;;;;;20.50;18.42;;;26.40;64.20;;;;;;4978016;28;20042;-84
2022/06/30 10:13:26;;;;;;;15.38;13.77;;;26.40;62.80;;;;;;4977826;28;20085;-79
2022/06/30 10:15:54;;;;;;;17.23;15.43;;;26.40;58.70;;;;;;4994252;28;20089;-81
2022/06/30 10:18:30;;;;;;;20.05;17.92;;;26.40;58.60;;;;;;4977379;28;20085;-79
2022/06/30 10:20:56;;;;;;;18.58;10.73;;;26.40;60.10;;;;;;4977713;28;20042;-80
2022/06/30 10:23:23;;;;;;;13.80;11.73;;;26.60;59.40;;;;;;4961263;28;20121;-78
2022/06/30 10:25:50;;;;;;;24.45;13.27;;;26.70;58.40;;;;;;4993929;28;20503;-79
2022/06/30 10:28:18;;;;;;;12.70;11.40;;;26.80;57.70;;;;;;4977768;28;20048;-80
2022/06/30 10:31:15;;;;;;;17.58;15.77;;;26.80;58.00;;;;;;4977421;28;20034;-80
2022/06/30 10:34:16;;;;;;;16.48;13.75;;;26.90;58.70;;;;;;4960675;28;20041;-82
2022/06/30 10:36:50;;;;;;;14.60;13.07;;;26.80;59.80;;;;;;4961807;28;20073;-76
2022/06/30 10:39:34;;;;;;;15.93;14.27;;;26.80;59.40;;;;;;4961447;28;20464;-78
2022/06/30 10:42:00;;;;;;;17.38;11.27;;;26.90;58.80;;;;;;4976614;28;20121;-78
2022/06/30 10:44:27;;;;;;;15.90;12.32;;;26.80;59.00;;;;;;4961445;28;20124;-82
2022/06/30 10:46:55;;;;;;;17.95;14.02;;;26.90;59.30;;;;;;4977542;28;20065;-80
2022/06/30 10:49:24;;;;;;;16.13;12.57;;;26.90;59.20;;;;;;4977620;28;20056;-83
2022/06/30 10:51:54;;;;;;;12.63;10.93;;;26.90;58.90;;;;;;4993824;28;20069;-82
2022/06/30 10:54:29;;;;;;;13.90;10.27;;;26.90;58.80;;;;;;4977373;28;20038;-80
2022/06/30 10:56:56;;;;;;;12.48;10.38;;;26.90;57.40;;;;;;4961277;28;20502;-78
2022/06/30 10:59:34;;;;;;;10.65;9.57;;;27.00;56.90;;;;;;4977378;28;20390;-80
2022/06/30 11:02:13;;;;;;;14.63;12.95;;;27.00;57.10;;;;;;4977451;28;20368;-80
2022/06/30 11:04:41;;;;;;;13.68;12.18;;;27.00;57.90;;;;;;4977095;28;20046;-79
2022/06/30 11:07:11;;;;;;;14.07;12.25;;;27.00;57.30;;;;;;4993502;28;20179;-77
2022/06/30 11:09:54;;;;;;;13.70;12.27;;;27.00;58.20;;;;;;4993084;28;20045;-77
2022/06/30 11:12:29;;;;;;;16.57;12.63;;;27.10;57.90;;;;;;4977051;28;20117;-79
2022/06/30 11:14:58;;;;;;;11.10;9.90;;;27.00;57.10;;;;;;4993208;28;20054;-81
2022/06/30 11:17:26;;;;;;;14.65;13.20;;;26.90;55.50;;;;;;4993407;28;20479;-81
2022/06/30 11:20:06;;;;;;;15.32;11.73;;;26.90;57.00;;;;;;4960953;28;20434;-82
2022/06/30 11:22:33;;;;;;;11.63;10.00;;;27.00;58.50;;;;;;4976810;28;20046;-81
2022/06/30 11:25:03;;;;;;;13.43;11.38;;;27.00;58.20;;;;;;4976948;28;20403;-77
2022/06/30 11:27:32;;;;;;;14.73;11.48;;;27.00;57.60;;;;;;4977081;28;20451;-82
2022/06/30 11:30:04;;;;;;;12.60;11.30;;;27.10;56.90;;;;;;4960602;28;20076;-78
2022/06/30 11:32:31;;;;;;;14.50;9.57;;;27.10;57.20;;;;;;4976739;28;20042;-82
2022/06/30 11:34:57;;;;;;;12.85;10.27;;;27.10;57.00;;;;;;4944986;28;20078;-82
2022/06/30 11:37:28;;;;;;;13.73;9.85;;;27.10;57.10;;;;;;4976626;28;20046;-81
2022/06/30 11:40:11;;;;;;;12.68;9.57;;;27.10;56.80;;;;;;4976506;28;20046;-81
2022/06/30 11:42:37;;;;;;;23.25;12.60;;;27.10;57.80;;;;;;4960749;28;20490;-80
2022/06/30 11:45:16;;;;;;;14.77;11.57;;;27.20;58.10;;;;;;4960379;28;20498;-80
2022/06/30 11:47:42;;;;;;;16.52;14.40;;;27.30;58.80;;;;;;4976612;28;20140;-79
2022/06/30 11:50:08;;;;;;;13.90;11.68;;;27.30;58.60;;;;;;4944503;28;20038;-83
2022/06/30 11:52:38;;;;;;;13.75;12.18;;;27.30;59.10;;;;;;4960487;28;20038;-80
2022/06/30 11:55:05;;;;;;;12.07;9.25;;;27.20;58.70;;;;;;4976492;28;20046;-82
2022/06/30 11:57:34;;;;;;;12.00;7.85;;;27.30;58.50;;;;;;4960316;28;20049;-81
2022/06/30 12:00:04;;;;;;;8.77;7.43;;;27.20;55.20;;;;;;4976242;28;20050;-81
2022/06/30 12:02:32;;;;;;;9.98;6.85;;;27.20;53.20;;;;;;4976306;28;20050;-82
2022/06/30 12:05:00;;;;;;;8.38;6.55;;;27.20;53.10;;;;;;4992298;28;20034;-81
2022/06/30 12:07:27;;;;;;;12.25;7.68;;;27.20;53.20;;;;;;4944219;28;20038;-83
2022/06/30 12:09:54;;;;;;;9.52;7.13;;;27.20;53.60;;;;;;4928448;28;20129;-83
2022/06/30 12:12:28;;;;;;;13.30;8.73;;;27.20;54.70;;;;;;4959802;28;20038;-81
2022/06/30 12:14:59;;;;;;;10.45;8.60;;;27.20;53.80;;;;;;4992346;28;20057;-82
2022/06/30 12:17:30;;;;;;;10.95;7.50;;;27.20;53.10;;;;;;4960331;28;20042;-82
2022/06/30 12:19:56;;;;;;;10.07;6.88;;;27.20;53.10;;;;;;4960185;28;20041;-80
2022/06/30 12:22:22;;;;;;;9.40;7.28;;;27.00;52.70;;;;;;4976000;28;20549;-82
2022/06/30 12:24:49;;;;;;;11.98;8.38;;;27.00;53.00;;;;;;4944008;28;20046;-83
2022/06/30 12:27:40;;;;;;;10.48;8.50;;;26.90;52.60;;;;;;4960197;28;20038;-80
2022/06/30 12:30:09;;;;;;;12.20;8.23;;;26.90;54.30;;;;;;4970415;28;20494;-80
2022/06/30 12:32:34;;;;;;;11.40;9.57;;;26.90;55.10;;;;;;4975981;28;20082;-80
2022/06/30 12:35:11;;;;;;;9.68;8.68;;;27.00;54.30;;;;;;4975997;28;20418;-83
2022/06/30 12:37:40;;;;;;;12.80;8.85;;;27.00;53.80;;;;;;4960070;28;20095;-82
2022/06/30 12:40:10;;;;;;;10.50;8.55;;;27.00;55.00;;;;;;4976298;28;20101;-81
2022/06/30 12:42:45;;;;;;;11.38;9.18;;;27.00;53.50;;;;;;4976382;28;20042;-83
2022/06/30 12:45:36;;;;;;;13.07;8.40;;;27.00;53.60;;;;;;4975926;28;20047;-80
2022/06/30 12:48:06;;;;;;;11.18;8.00;;;26.90;54.20;;;;;;4959759;28;20038;-81
2022/06/30 12:50:37;;;;;;;7.40;6.60;;;26.90;54.80;;;;;;4976023;28;20039;-80
2022/06/30 12:53:23;;;;;;;11.43;7.43;;;26.90;52.70;;;;;;4960479;28;20038;-82
2022/06/30 12:56:20;;;;;;;9.02;7.05;;;26.90;52.40;;;;;;4944055;28;20122;-81